Aeroporto :
LOGIN :

Iscrizione | Disclaimer

   EN    FR    IT 

 










Sommario :    VFR   VFR Marginale   IFR   IFR Intensivo   IFR Molto Intensivo
Visibilità : 
Base nubi : 
>= 8 km
>= 3000ft
5 / 8 km
1000 / 3000 ft
1500m / 5 km
500 / 1000 ft
800 / 1500m
200 / 500 ft
< 800m
< 200 ft
Simboli :   Temporali  Nebbia  Neve Forte  Precipitazioni Forti  Vento > 20 kt
SIGMETs :   Varie  Temporali  Ghiacco  Turbolenza  Onda orograficha  Ceneri Vulcaniche






- Altitudine del aeroporto : 117 ft
- Codice IATA : NWI


EGSH - Norwich

ULTIMO METAR :
  • 140620Z 08010KT 8000 RA BKN014 07/06 Q0993

METARs OBSOLETI :
  • 140550Z 09006KT 9000 -RA SCT017 BKN024 07/05 Q0993 TEMPO RA
  • 140520Z AUTO 08008KT 9999 SCT017/// BKN022/// BKN027/// 07/05 Q0993 RERA
  • 140450Z AUTO 09006KT 060V120 9999 SCT022/// BKN033/// 06/05 Q0993
  • 140420Z AUTO 07007KT 9999 FEW026/// 06/04 Q0993
  • 140350Z AUTO 08006KT 9999 NCD 05/04 Q0993

TAF TAF EGSH
Valido dal 14 a 06 ore il 14 a 15 ore UTC


140459Z 1406/1415 08009KT 9999 SCT025
TEMPO 1406/1415 6000 RA BKN012
PROB30
TEMPO 1406/1412 4000 +RA BKN008
ATIS : +44 1603 420 640



MetMap, La meteo Aeronautica in un colpo d'occhio ! - Copyright ORBIFLY Dicembre 2007 - Disclaimer

ORBIFLY MET'MAP TEAM :

Programmazione e sviluppo : Alexandra Zaïnal
Concezione e sviluppo : Baudouin d'Aumeries
Co-Programmazione e sviluppo : Marc-Olivier Méhu
Supporto tecnico e logistico : Manuel Goepfert
Aiuto per la traduzione : Arnaldo La Scala

Contatto : metmap@orbifly.com




FONTI E CREDITI :

   NOAA